Terminal Aerodrome Forecast
Issued by NWS

Home | Current Version | Previous Version | Text Only | Print | Product List | Glossary On
Versions: 1 2 3 4 5 6 7 8 9 10 11 12 13
544
FTUS45 KFGZ 232336
TAFGCN
TAF
KGCN 232336Z 2400/2424 25010KT P6SM SKC
     FM240100 VRB03KT P6SM FEW250
     FM241700 24010G18KT P6SM FEW130 FEW250
     FM242000 25016G26KT P6SM FEW130 FEW250=

USA.gov is the U.S. government's official web portal to all federal, state and local government web resources and services.